sensor_id;sensor_type;location;lat;lon;timestamp;noise_LAeq;noise_LA_min;noise_LA_max;noise_LA01;noise_LA95
69619;Laerm;57653;51.434;5.984;2023-04-25T00:00:05;34.31;33.39;40.60;;
69619;Laerm;57653;51.434;5.984;2023-04-25T00:00:17;36.85;33.11;48.29;;
69619;Laerm;57653;51.434;5.984;2023-04-25T00:00:27;34.27;33.26;36.94;;
69619;Laerm;57653;51.434;5.984;2023-04-25T00:00:37;34.22;33.23;36.00;;
69619;Laerm;57653;51.434;5.984;2023-04-25T00:00:47;34.23;33.15;35.17;;
69619;Laerm;57653;51.434;5.984;2023-04-25T00:00:58;34.17;33.00;35.21;;
69619;Laerm;57653;51.434;5.984;2023-04-25T00:01:08;34.21;33.02;37.49;;
69619;Laerm;57653;51.434;5.984;2023-04-25T00:01:19;34.23;33.17;39.94;;
69619;Laerm;57653;51.434;5.984;2023-04-25T00:01:30;34.19;33.20;35.44;;
69619;Laerm;57653;51.434;5.984;2023-04-25T00:01:40;34.26;33.39;37.90;;
69619;Laerm;57653;51.434;5.984;2023-04-25T00:01:50;34.37;33.28;42.66;;
69619;Laerm;57653;51.434;5.984;2023-04-25T00:02:01;34.51;33.29;46.85;;
69619;Laerm;57653;51.434;5.984;2023-04-25T00:02:13;34.13;32.75;35.44;;
69619;Laerm;57653;51.434;5.984;2023-04-25T00:02:23;34.22;33.22;41.79;;
69619;Laerm;57653;51.434;5.984;2023-04-25T00:02:34;34.16;33.15;36.71;;
69619;Laerm;57653;51.434;5.984;2023-04-25T00:02:45;34.14;32.94;36.42;;
69619;Laerm;57653;51.434;5.984;2023-04-25T00:02:56;34.15;33.08;36.99;;
69619;Laerm;57653;51.434;5.984;2023-04-25T00:03:06;34.27;33.31;37.30;;
69619;Laerm;57653;51.434;5.984;2023-04-25T00:03:19;34.44;33.12;42.55;;
69619;Laerm;57653;51.434;5.984;2023-04-25T00:03:31;34.18;33.09;35.26;;
69619;Laerm;57653;51.434;5.984;2023-04-25T00:03:41;34.20;33.01;36.06;;
69619;Laerm;57653;51.434;5.984;2023-04-25T00:03:52;34.14;33.01;35.10;;
69619;Laerm;57653;51.434;5.984;2023-04-25T00:04:02;34.42;33.14;42.55;;
69619;Laerm;57653;51.434;5.984;2023-04-25T00:04:12;34.17;33.19;35.73;;
69619;Laerm;57653;51.434;5.984;2023-04-25T00:04:23;34.25;33.18;38.57;;
69619;Laerm;57653;51.434;5.984;2023-04-25T00:04:33;34.20;33.17;36.01;;
69619;Laerm;57653;51.434;5.984;2023-04-25T00:04:43;34.28;33.22;35.29;;
69619;Laerm;57653;51.434;5.984;2023-04-25T00:04:53;34.22;33.21;35.56;;
69619;Laerm;57653;51.434;5.984;2023-04-25T00:05:07;34.57;33.19;45.44;;
69619;Laerm;57653;51.434;5.984;2023-04-25T00:05:17;34.54;33.26;45.99;;
69619;Laerm;57653;51.434;5.984;2023-04-25T00:05:27;34.18;33.04;35.26;;
69619;Laerm;57653;51.434;5.984;2023-04-25T00:05:42;34.19;33.18;35.32;;
69619;Laerm;57653;51.434;5.984;2023-04-25T00:05:52;34.26;33.22;40.17;;
69619;Laerm;57653;51.434;5.984;2023-04-25T00:06:03;35.10;33.19;43.12;;
69619;Laerm;57653;51.434;5.984;2023-04-25T00:06:13;34.30;33.29;35.13;;
69619;Laerm;57653;51.434;5.984;2023-04-25T00:06:23;34.30;33.27;35.32;;
69619;Laerm;57653;51.434;5.984;2023-04-25T00:06:36;34.41;33.15;44.05;;
69619;Laerm;57653;51.434;5.984;2023-04-25T00:06:46;34.34;33.23;43.62;;
69619;Laerm;57653;51.434;5.984;2023-04-25T00:06:56;34.68;33.14;46.82;;
69619;Laerm;57653;51.434;5.984;2023-04-25T00:07:07;34.28;33.10;36.86;;
69619;Laerm;57653;51.434;5.984;2023-04-25T00:07:17;34.19;32.96;35.19;;
69619;Laerm;57653;51.434;5.984;2023-04-25T00:07:28;34.25;33.36;35.29;;
69619;Laerm;57653;51.434;5.984;2023-04-25T00:07:38;34.33;33.42;40.63;;
69619;Laerm;57653;51.434;5.984;2023-04-25T00:07:49;34.28;33.14;36.94;;
69619;Laerm;57653;51.434;5.984;2023-04-25T00:07:59;34.26;33.22;39.86;;
69619;Laerm;57653;51.434;5.984;2023-04-25T00:08:10;34.34;33.20;39.91;;
69619;Laerm;57653;51.434;5.984;2023-04-25T00:08:20;34.31;33.39;35.47;;
69619;Laerm;57653;51.434;5.984;2023-04-25T00:08:30;34.23;32.81;38.37;;
69619;Laerm;57653;51.434;5.984;2023-04-25T00:08:41;35.07;33.22;50.92;;
69619;Laerm;57653;51.434;5.984;2023-04-25T00:08:51;34.83;33.30;43.40;;
69619;Laerm;57653;51.434;5.984;2023-04-25T00:09:02;34.65;33.05;47.08;;
69619;Laerm;57653;51.434;5.984;2023-04-25T00:09:13;34.19;33.33;35.04;;
69619;Laerm;57653;51.434;5.984;2023-04-25T00:09:23;34.18;33.12;35.05;;
69619;Laerm;57653;51.434;5.984;2023-04-25T00:09:34;34.19;32.56;35.17;;
69619;Laerm;57653;51.434;5.984;2023-04-25T00:09:44;34.30;33.24;41.35;;
69619;Laerm;57653;51.434;5.984;2023-04-25T00:09:54;34.33;33.16;39.31;;
69619;Laerm;57653;51.434;5.984;2023-04-25T00:10:05;34.14;32.95;35.27;;
69619;Laerm;57653;51.434;5.984;2023-04-25T00:10:15;34.24;33.11;35.12;;
69619;Laerm;57653;51.434;5.984;2023-04-25T00:10:26;34.38;33.36;43.81;;
69619;Laerm;57653;51.434;5.984;2023-04-25T00:10:36;34.41;33.01;42.67;;
69619;Laerm;57653;51.434;5.984;2023-04-25T00:10:46;34.21;33.01;35.66;;
69619;Laerm;57653;51.434;5.984;2023-04-25T00:10:58;34.20;33.16;37.09;;
69619;Laerm;57653;51.434;5.984;2023-04-25T00:11:09;34.26;32.98;35.15;;
69619;Laerm;57653;51.434;5.984;2023-04-25T00:11:19;34.35;33.28;35.37;;
69619;Laerm;57653;51.434;5.984;2023-04-25T00:11:29;34.38;33.09;36.46;;
69619;Laerm;57653;51.434;5.984;2023-04-25T00:11:41;34.79;32.88;49.26;;
69619;Laerm;57653;51.434;5.984;2023-04-25T00:11:51;35.14;33.29;48.85;;
69619;Laerm;57653;51.434;5.984;2023-04-25T00:12:01;34.77;33.34;47.10;;
69619;Laerm;57653;51.434;5.984;2023-04-25T00:12:11;37.30;33.43;53.98;;
69619;Laerm;57653;51.434;5.984;2023-04-25T00:12:22;34.52;33.07;41.73;;
69619;Laerm;57653;51.434;5.984;2023-04-25T00:12:32;35.16;33.26;47.59;;
69619;Laerm;57653;51.434;5.984;2023-04-25T00:12:43;34.36;33.18;37.32;;
69619;Laerm;57653;51.434;5.984;2023-04-25T00:12:53;34.39;33.19;39.15;;
69619;Laerm;57653;51.434;5.984;2023-04-25T00:13:04;34.80;33.35;45.06;;
69619;Laerm;57653;51.434;5.984;2023-04-25T00:13:14;34.22;33.13;37.97;;
69619;Laerm;57653;51.434;5.984;2023-04-25T00:13:25;34.62;33.15;46.61;;
69619;Laerm;57653;51.434;5.984;2023-04-25T00:13:35;34.20;33.10;35.02;;
69619;Laerm;57653;51.434;5.984;2023-04-25T00:13:45;34.25;33.26;43.39;;
69619;Laerm;57653;51.434;5.984;2023-04-25T00:13:56;34.14;33.04;35.05;;
69619;Laerm;57653;51.434;5.984;2023-04-25T00:14:07;34.28;33.17;44.36;;
69619;Laerm;57653;51.434;5.984;2023-04-25T00:14:17;34.09;33.11;35.31;;
69619;Laerm;57653;51.434;5.984;2023-04-25T00:14:28;34.12;32.98;35.12;;
69619;Laerm;57653;51.434;5.984;2023-04-25T00:14:39;34.15;33.15;35.15;;
69619;Laerm;57653;51.434;5.984;2023-04-25T00:14:49;34.16;33.01;35.11;;
69619;Laerm;57653;51.434;5.984;2023-04-25T00:15:03;38.97;33.07;58.72;;
69619;Laerm;57653;51.434;5.984;2023-04-25T00:15:13;35.40;32.96;47.16;;
69619;Laerm;57653;51.434;5.984;2023-04-25T00:15:23;34.26;32.87;41.50;;
69619;Laerm;57653;51.434;5.984;2023-04-25T00:15:34;34.18;33.19;35.18;;
69619;Laerm;57653;51.434;5.984;2023-04-25T00:15:46;34.25;32.99;37.30;;
69619;Laerm;57653;51.434;5.984;2023-04-25T00:15:56;34.23;33.06;40.27;;
69619;Laerm;57653;51.434;5.984;2023-04-25T00:16:06;34.26;33.15;35.64;;
69619;Laerm;57653;51.434;5.984;2023-04-25T00:16:16;34.25;33.11;35.72;;
69619;Laerm;57653;51.434;5.984;2023-04-25T00:16:27;34.30;33.18;36.29;;
69619;Laerm;57653;51.434;5.984;2023-04-25T00:16:38;34.21;33.08;35.44;;
69619;Laerm;57653;51.434;5.984;2023-04-25T00:16:51;34.33;33.24;37.22;;
69619;Laerm;57653;51.434;5.984;2023-04-25T00:17:02;34.54;33.22;40.62;;
69619;Laerm;57653;51.434;5.984;2023-04-25T00:17:12;34.30;33.26;36.10;;
69619;Laerm;57653;51.434;5.984;2023-04-25T00:17:23;34.20;33.17;35.50;;
69619;Laerm;57653;51.434;5.984;2023-04-25T00:17:36;34.27;33.33;35.33;;
69619;Laerm;57653;51.434;5.984;2023-04-25T00:17:48;34.34;33.21;39.16;;
69619;Laerm;57653;51.434;5.984;2023-04-25T00:17:58;34.23;33.16;35.32;;
69619;Laerm;57653;51.434;5.984;2023-04-25T00:18:11;34.20;33.30;35.45;;
69619;Laerm;57653;51.434;5.984;2023-04-25T00:18:22;34.14;33.08;36.67;;
69619;Laerm;57653;51.434;5.984;2023-04-25T00:18:32;34.14;33.14;35.06;;
69619;Laerm;57653;51.434;5.984;2023-04-25T00:18:43;34.24;33.25;36.71;;
69619;Laerm;57653;51.434;5.984;2023-04-25T00:18:53;34.13;33.22;35.09;;
69619;Laerm;57653;51.434;5.984;2023-04-25T00:19:03;34.18;33.13;36.79;;
69619;Laerm;57653;51.434;5.984;2023-04-25T00:19:14;34.20;33.10;35.54;;
69619;Laerm;57653;51.434;5.984;2023-04-25T00:19:24;34.22;33.22;36.23;;
69619;Laerm;57653;51.434;5.984;2023-04-25T00:19:34;34.28;33.00;36.59;;
69619;Laerm;57653;51.434;5.984;2023-04-25T00:19:45;34.38;33.08;41.18;;
69619;Laerm;57653;51.434;5.984;2023-04-25T00:19:56;34.27;33.16;39.34;;
69619;Laerm;57653;51.434;5.984;2023-04-25T00:20:08;34.22;33.06;35.24;;
69619;Laerm;57653;51.434;5.984;2023-04-25T00:20:19;34.18;32.91;37.23;;
69619;Laerm;57653;51.434;5.984;2023-04-25T00:20:29;34.17;33.06;35.30;;
69619;Laerm;57653;51.434;5.984;2023-04-25T00:20:40;34.20;33.43;35.33;;
69619;Laerm;57653;51.434;5.984;2023-04-25T00:20:50;34.29;33.10;44.26;;
69619;Laerm;57653;51.434;5.984;2023-04-25T00:21:00;34.19;33.10;34.98;;
69619;Laerm;57653;51.434;5.984;2023-04-25T00:21:10;34.26;33.13;38.74;;
69619;Laerm;57653;51.434;5.984;2023-04-25T00:21:21;34.16;33.23;35.19;;
69619;Laerm;57653;51.434;5.984;2023-04-25T00:21:32;34.20;32.80;36.48;;
69619;Laerm;57653;51.434;5.984;2023-04-25T00:21:42;34.16;33.04;35.08;;
69619;Laerm;57653;51.434;5.984;2023-04-25T00:21:55;34.20;33.22;35.52;;
69619;Laerm;57653;51.434;5.984;2023-04-25T00:22:06;34.18;33.26;35.02;;
69619;Laerm;57653;51.434;5.984;2023-04-25T00:22:16;34.15;32.99;34.95;;
69619;Laerm;57653;51.434;5.984;2023-04-25T00:22:27;34.14;33.01;35.05;;
69619;Laerm;57653;51.434;5.984;2023-04-25T00:22:37;34.22;33.23;35.25;;
69619;Laerm;57653;51.434;5.984;2023-04-25T00:22:48;34.20;33.21;35.16;;
69619;Laerm;57653;51.434;5.984;2023-04-25T00:22:58;34.24;33.10;37.95;;
69619;Laerm;57653;51.434;5.984;2023-04-25T00:23:08;34.22;33.15;35.70;;
69619;Laerm;57653;51.434;5.984;2023-04-25T00:23:18;34.25;33.10;38.16;;
69619;Laerm;57653;51.434;5.984;2023-04-25T00:23:28;34.38;33.20;42.51;;
69619;Laerm;57653;51.434;5.984;2023-04-25T00:23:39;34.26;33.30;35.49;;
69619;Laerm;57653;51.434;5.984;2023-04-25T00:23:49;34.19;33.14;40.02;;
69619;Laerm;57653;51.434;5.984;2023-04-25T00:24:00;34.30;33.30;38.83;;
69619;Laerm;57653;51.434;5.984;2023-04-25T00:24:10;34.37;32.91;41.62;;
69619;Laerm;57653;51.434;5.984;2023-04-25T00:24:20;34.20;33.14;35.25;;
69619;Laerm;57653;51.434;5.984;2023-04-25T00:24:31;34.68;33.31;48.82;;
69619;Laerm;57653;51.434;5.984;2023-04-25T00:24:41;34.18;33.18;35.24;;
69619;Laerm;57653;51.434;5.984;2023-04-25T00:24:51;34.18;32.95;36.37;;
69619;Laerm;57653;51.434;5.984;2023-04-25T00:25:04;34.38;33.20;41.50;;
69619;Laerm;57653;51.434;5.984;2023-04-25T00:25:14;34.37;33.19;40.04;;
69619;Laerm;57653;51.434;5.984;2023-04-25T00:25:25;34.33;33.14;35.43;;
69619;Laerm;57653;51.434;5.984;2023-04-25T00:25:35;34.37;33.25;41.31;;
69619;Laerm;57653;51.434;5.984;2023-04-25T00:25:45;34.46;33.39;42.28;;
69619;Laerm;57653;51.434;5.984;2023-04-25T00:25:56;34.34;33.29;35.53;;
69619;Laerm;57653;51.434;5.984;2023-04-25T00:26:06;34.38;33.36;41.29;;
69619;Laerm;57653;51.434;5.984;2023-04-25T00:26:16;34.29;33.16;38.86;;
69619;Laerm;57653;51.434;5.984;2023-04-25T00:26:27;34.32;33.06;41.69;;
69619;Laerm;57653;51.434;5.984;2023-04-25T00:26:37;34.34;33.01;41.87;;
69619;Laerm;57653;51.434;5.984;2023-04-25T00:26:47;34.27;33.24;39.90;;
69619;Laerm;57653;51.434;5.984;2023-04-25T00:26:58;34.25;33.17;35.43;;
69619;Laerm;57653;51.434;5.984;2023-04-25T00:27:08;34.18;33.12;35.27;;
69619;Laerm;57653;51.434;5.984;2023-04-25T00:27:18;34.21;33.19;35.40;;
69619;Laerm;57653;51.434;5.984;2023-04-25T00:27:29;34.22;33.12;35.58;;
69619;Laerm;57653;51.434;5.984;2023-04-25T00:27:39;34.15;33.13;35.64;;
69619;Laerm;57653;51.434;5.984;2023-04-25T00:27:51;34.14;32.98;35.20;;
69619;Laerm;57653;51.434;5.984;2023-04-25T00:28:01;34.20;33.07;35.12;;
69619;Laerm;57653;51.434;5.984;2023-04-25T00:28:12;34.42;32.91;45.66;;
69619;Laerm;57653;51.434;5.984;2023-04-25T00:28:22;34.52;33.33;44.58;;
69619;Laerm;57653;51.434;5.984;2023-04-25T00:28:33;34.28;33.01;37.17;;
69619;Laerm;57653;51.434;5.984;2023-04-25T00:28:43;34.32;33.01;42.40;;
69619;Laerm;57653;51.434;5.984;2023-04-25T00:28:53;34.34;33.00;41.09;;
69619;Laerm;57653;51.434;5.984;2023-04-25T00:29:03;34.23;33.32;37.60;;
69619;Laerm;57653;51.434;5.984;2023-04-25T00:29:14;34.15;33.23;35.23;;
69619;Laerm;57653;51.434;5.984;2023-04-25T00:29:25;34.13;33.03;35.33;;
69619;Laerm;57653;51.434;5.984;2023-04-25T00:29:35;34.22;33.37;35.26;;
69619;Laerm;57653;51.434;5.984;2023-04-25T00:29:45;34.42;32.76;44.03;;
69619;Laerm;57653;51.434;5.984;2023-04-25T00:29:55;34.20;33.34;35.87;;
69619;Laerm;57653;51.434;5.984;2023-04-25T00:30:06;34.20;33.32;35.19;;
69619;Laerm;57653;51.434;5.984;2023-04-25T00:30:16;34.29;33.29;40.73;;
69619;Laerm;57653;51.434;5.984;2023-04-25T00:30:26;34.23;32.96;39.72;;
69619;Laerm;57653;51.434;5.984;2023-04-25T00:30:38;34.22;33.19;39.47;;
69619;Laerm;57653;51.434;5.984;2023-04-25T00:30:48;34.15;33.09;35.10;;
69619;Laerm;57653;51.434;5.984;2023-04-25T00:30:58;34.26;33.04;37.53;;
69619;Laerm;57653;51.434;5.984;2023-04-25T00:31:09;34.94;33.24;42.10;;
69619;Laerm;57653;51.434;5.984;2023-04-25T00:31:19;34.31;32.92;43.78;;
69619;Laerm;57653;51.434;5.984;2023-04-25T00:31:30;34.45;33.16;43.29;;
69619;Laerm;57653;51.434;5.984;2023-04-25T00:31:40;34.23;32.97;39.27;;
69619;Laerm;57653;51.434;5.984;2023-04-25T00:31:50;34.26;33.17;41.22;;
69619;Laerm;57653;51.434;5.984;2023-04-25T00:32:01;34.28;33.14;38.94;;
69619;Laerm;57653;51.434;5.984;2023-04-25T00:32:11;34.79;33.28;43.86;;
69619;Laerm;57653;51.434;5.984;2023-04-25T00:32:21;34.81;33.30;39.30;;
69619;Laerm;57653;51.434;5.984;2023-04-25T00:32:32;34.76;33.32;38.16;;
69619;Laerm;57653;51.434;5.984;2023-04-25T00:32:42;34.36;33.34;37.06;;
69619;Laerm;57653;51.434;5.984;2023-04-25T00:32:52;34.31;33.35;35.48;;
69619;Laerm;57653;51.434;5.984;2023-04-25T00:33:03;34.25;33.27;35.92;;
69619;Laerm;57653;51.434;5.984;2023-04-25T00:33:13;34.27;33.06;37.77;;
69619;Laerm;57653;51.434;5.984;2023-04-25T00:33:23;34.42;33.27;36.35;;
69619;Laerm;57653;51.434;5.984;2023-04-25T00:33:33;34.60;33.39;35.79;;
69619;Laerm;57653;51.434;5.984;2023-04-25T00:33:44;34.33;33.11;35.89;;
69619;Laerm;57653;51.434;5.984;2023-04-25T00:33:55;48.23;33.77;59.57;;
69619;Laerm;57653;51.434;5.984;2023-04-25T00:34:05;66.77;55.30;70.01;;
69619;Laerm;57653;51.434;5.984;2023-04-25T00:34:16;66.62;63.16;68.82;;
69619;Laerm;57653;51.434;5.984;2023-04-25T00:34:26;59.93;49.76;66.77;;
69619;Laerm;57653;51.434;5.984;2023-04-25T00:34:36;47.00;42.57;50.61;;
69619;Laerm;57653;51.434;5.984;2023-04-25T00:34:46;41.32;37.50;47.00;;
69619;Laerm;57653;51.434;5.984;2023-04-25T00:34:57;37.49;35.51;39.28;;
69619;Laerm;57653;51.434;5.984;2023-04-25T00:35:08;36.31;34.37;38.25;;
69619;Laerm;57653;51.434;5.984;2023-04-25T00:35:18;36.37;34.73;38.43;;
69619;Laerm;57653;51.434;5.984;2023-04-25T00:35:29;35.37;34.05;40.99;;
69619;Laerm;57653;51.434;5.984;2023-04-25T00:35:40;35.33;34.00;42.22;;
69619;Laerm;57653;51.434;5.984;2023-04-25T00:35:50;35.22;33.88;36.43;;
69619;Laerm;57653;51.434;5.984;2023-04-25T00:36:00;34.98;33.65;36.20;;
69619;Laerm;57653;51.434;5.984;2023-04-25T00:36:10;34.61;33.57;37.11;;
69619;Laerm;57653;51.434;5.984;2023-04-25T00:36:21;34.47;33.45;38.57;;
69619;Laerm;57653;51.434;5.984;2023-04-25T00:36:31;34.36;33.03;43.77;;
69619;Laerm;57653;51.434;5.984;2023-04-25T00:36:42;34.29;33.14;36.95;;
69619;Laerm;57653;51.434;5.984;2023-04-25T00:36:52;34.30;33.40;36.69;;
69619;Laerm;57653;51.434;5.984;2023-04-25T00:37:02;34.51;33.35;35.53;;
69619;Laerm;57653;51.434;5.984;2023-04-25T00:37:13;34.22;33.07;35.25;;
69619;Laerm;57653;51.434;5.984;2023-04-25T00:37:23;34.23;33.08;35.39;;
69619;Laerm;57653;51.434;5.984;2023-04-25T00:37:33;34.24;33.27;35.21;;
69619;Laerm;57653;51.434;5.984;2023-04-25T00:37:43;34.15;32.87;35.18;;
69619;Laerm;57653;51.434;5.984;2023-04-25T00:37:54;34.34;33.26;37.82;;
69619;Laerm;57653;51.434;5.984;2023-04-25T00:38:04;34.46;33.13;45.86;;
69619;Laerm;57653;51.434;5.984;2023-04-25T00:38:15;34.18;33.23;34.99;;
69619;Laerm;57653;51.434;5.984;2023-04-25T00:38:25;34.26;33.08;38.65;;
69619;Laerm;57653;51.434;5.984;2023-04-25T00:38:35;34.27;32.90;37.80;;
69619;Laerm;57653;51.434;5.984;2023-04-25T00:38:46;34.16;33.31;35.02;;
69619;Laerm;57653;51.434;5.984;2023-04-25T00:38:56;34.18;33.15;35.08;;
69619;Laerm;57653;51.434;5.984;2023-04-25T00:39:06;34.52;33.23;45.75;;
69619;Laerm;57653;51.434;5.984;2023-04-25T00:39:17;34.19;33.12;36.94;;
69619;Laerm;57653;51.434;5.984;2023-04-25T00:39:27;34.12;32.90;37.26;;
69619;Laerm;57653;51.434;5.984;2023-04-25T00:39:37;34.20;32.65;37.31;;
69619;Laerm;57653;51.434;5.984;2023-04-25T00:39:47;34.17;33.15;36.08;;
69619;Laerm;57653;51.434;5.984;2023-04-25T00:39:58;34.15;33.09;37.97;;
69619;Laerm;57653;51.434;5.984;2023-04-25T00:40:11;34.09;33.15;35.22;;
69619;Laerm;57653;51.434;5.984;2023-04-25T00:40:22;34.15;32.95;35.21;;
69619;Laerm;57653;51.434;5.984;2023-04-25T00:40:32;34.13;32.98;36.82;;
69619;Laerm;57653;51.434;5.984;2023-04-25T00:40:42;34.20;32.98;35.31;;
69619;Laerm;57653;51.434;5.984;2023-04-25T00:40:53;34.07;33.06;35.14;;
69619;Laerm;57653;51.434;5.984;2023-04-25T00:41:06;34.12;32.92;35.26;;
69619;Laerm;57653;51.434;5.984;2023-04-25T00:41:16;34.22;33.19;35.66;;
69619;Laerm;57653;51.434;5.984;2023-04-25T00:41:26;34.42;33.41;35.42;;
69619;Laerm;57653;51.434;5.984;2023-04-25T00:41:37;34.22;33.18;35.16;;
69619;Laerm;57653;51.434;5.984;2023-04-25T00:41:47;34.55;33.36;36.28;;
69619;Laerm;57653;51.434;5.984;2023-04-25T00:41:58;56.55;35.22;61.75;;
69619;Laerm;57653;51.434;5.984;2023-04-25T00:42:08;60.94;58.47;63.20;;
69619;Laerm;57653;51.434;5.984;2023-04-25T00:42:18;61.37;59.11;65.66;;
69619;Laerm;57653;51.434;5.984;2023-04-25T00:42:29;56.96;47.28;62.69;;
69619;Laerm;57653;51.434;5.984;2023-04-25T00:42:40;44.11;38.72;48.78;;
69619;Laerm;57653;51.434;5.984;2023-04-25T00:42:53;39.01;36.25;42.00;;
69619;Laerm;57653;51.434;5.984;2023-04-25T00:43:03;37.14;35.06;39.94;;
69619;Laerm;57653;51.434;5.984;2023-04-25T00:43:14;35.95;34.34;37.44;;
69619;Laerm;57653;51.434;5.984;2023-04-25T00:43:27;35.14;33.69;36.69;;
69619;Laerm;57653;51.434;5.984;2023-04-25T00:43:37;34.92;33.51;36.11;;
69619;Laerm;57653;51.434;5.984;2023-04-25T00:43:49;34.91;33.56;36.25;;
69619;Laerm;57653;51.434;5.984;2023-04-25T00:44:01;34.70;33.60;35.85;;
69619;Laerm;57653;51.434;5.984;2023-04-25T00:44:12;34.57;33.31;35.56;;
69619;Laerm;57653;51.434;5.984;2023-04-25T00:44:23;34.78;33.50;35.95;;
69619;Laerm;57653;51.434;5.984;2023-04-25T00:44:34;34.34;33.17;35.56;;
69619;Laerm;57653;51.434;5.984;2023-04-25T00:44:45;34.23;33.23;35.17;;
69619;Laerm;57653;51.434;5.984;2023-04-25T00:44:56;34.30;33.21;35.25;;
69619;Laerm;57653;51.434;5.984;2023-04-25T00:45:07;34.28;33.27;35.26;;
69619;Laerm;57653;51.434;5.984;2023-04-25T00:45:18;34.22;33.22;35.32;;
69619;Laerm;57653;51.434;5.984;2023-04-25T00:45:29;34.10;33.06;34.98;;
69619;Laerm;57653;51.434;5.984;2023-04-25T00:45:40;34.11;32.70;37.58;;
69619;Laerm;57653;51.434;5.984;2023-04-25T00:45:50;34.13;32.89;35.08;;
69619;Laerm;57653;51.434;5.984;2023-04-25T00:46:00;34.15;32.96;35.70;;
69619;Laerm;57653;51.434;5.984;2023-04-25T00:46:11;34.19;33.13;40.18;;
69619;Laerm;57653;51.434;5.984;2023-04-25T00:46:21;34.17;33.22;35.38;;
69619;Laerm;57653;51.434;5.984;2023-04-25T00:46:31;34.14;33.07;35.39;;
69619;Laerm;57653;51.434;5.984;2023-04-25T00:46:42;34.11;32.89;35.25;;
69619;Laerm;57653;51.434;5.984;2023-04-25T00:46:53;34.13;32.87;36.17;;
69619;Laerm;57653;51.434;5.984;2023-04-25T00:47:03;34.13;33.09;35.23;;
69619;Laerm;57653;51.434;5.984;2023-04-25T00:47:14;34.14;32.92;37.66;;
69619;Laerm;57653;51.434;5.984;2023-04-25T00:47:31;34.19;33.22;35.25;;
69619;Laerm;57653;51.434;5.984;2023-04-25T00:47:42;34.33;33.33;35.31;;
69619;Laerm;57653;51.434;5.984;2023-04-25T00:47:52;34.32;33.24;35.44;;
69619;Laerm;57653;51.434;5.984;2023-04-25T00:48:02;44.39;33.60;54.70;;
69619;Laerm;57653;51.434;5.984;2023-04-25T00:48:14;64.05;53.13;68.76;;
69619;Laerm;57653;51.434;5.984;2023-04-25T00:48:24;65.77;63.37;68.00;;
69619;Laerm;57653;51.434;5.984;2023-04-25T00:48:35;64.44;58.58;67.38;;
69619;Laerm;57653;51.434;5.984;2023-04-25T00:48:45;54.47;47.30;60.90;;
69619;Laerm;57653;51.434;5.984;2023-04-25T00:48:55;45.81;42.71;49.26;;
69619;Laerm;57653;51.434;5.984;2023-04-25T00:49:06;42.75;39.82;45.80;;
69619;Laerm;57653;51.434;5.984;2023-04-25T00:49:16;38.75;35.52;42.45;;
69619;Laerm;57653;51.434;5.984;2023-04-25T00:49:26;35.99;34.73;37.54;;
69619;Laerm;57653;51.434;5.984;2023-04-25T00:49:37;37.29;35.24;39.68;;
69619;Laerm;57653;51.434;5.984;2023-04-25T00:49:47;36.68;35.04;38.62;;
69619;Laerm;57653;51.434;5.984;2023-04-25T00:49:57;35.51;33.65;36.98;;
69619;Laerm;57653;51.434;5.984;2023-04-25T00:50:08;34.91;33.71;36.05;;
69619;Laerm;57653;51.434;5.984;2023-04-25T00:50:18;35.22;33.91;37.13;;
69619;Laerm;57653;51.434;5.984;2023-04-25T00:50:29;34.99;33.73;36.16;;
69619;Laerm;57653;51.434;5.984;2023-04-25T00:50:40;34.78;33.58;36.04;;
69619;Laerm;57653;51.434;5.984;2023-04-25T00:50:52;34.80;33.52;36.06;;
69619;Laerm;57653;51.434;5.984;2023-04-25T00:51:04;34.80;33.43;36.16;;
69619;Laerm;57653;51.434;5.984;2023-04-25T00:51:16;34.54;33.40;35.82;;
69619;Laerm;57653;51.434;5.984;2023-04-25T00:51:26;34.28;33.20;35.28;;
69619;Laerm;57653;51.434;5.984;2023-04-25T00:51:37;34.31;33.47;35.46;;
69619;Laerm;57653;51.434;5.984;2023-04-25T00:51:47;34.37;33.08;35.71;;
69619;Laerm;57653;51.434;5.984;2023-04-25T00:51:58;34.26;32.90;35.31;;
69619;Laerm;57653;51.434;5.984;2023-04-25T00:52:08;34.19;33.26;35.45;;
69619;Laerm;57653;51.434;5.984;2023-04-25T00:52:18;34.29;33.30;35.26;;
69619;Laerm;57653;51.434;5.984;2023-04-25T00:52:29;34.18;33.08;35.25;;
69619;Laerm;57653;51.434;5.984;2023-04-25T00:52:40;34.20;33.23;35.21;;
69619;Laerm;57653;51.434;5.984;2023-04-25T00:52:51;34.73;33.10;43.37;;
69619;Laerm;57653;51.434;5.984;2023-04-25T00:53:01;38.22;33.30;55.31;;
69619;Laerm;57653;51.434;5.984;2023-04-25T00:53:13;34.82;33.33;41.71;;
69619;Laerm;57653;51.434;5.984;2023-04-25T00:53:24;34.59;33.17;39.07;;
69619;Laerm;57653;51.434;5.984;2023-04-25T00:53:35;34.73;33.38;38.91;;
69619;Laerm;57653;51.434;5.984;2023-04-25T00:53:45;34.66;33.35;39.90;;
69619;Laerm;57653;51.434;5.984;2023-04-25T00:53:56;34.32;33.09;37.68;;
69619;Laerm;57653;51.434;5.984;2023-04-25T00:54:08;34.63;32.94;42.03;;
69619;Laerm;57653;51.434;5.984;2023-04-25T00:54:18;34.21;32.48;37.45;;
69619;Laerm;57653;51.434;5.984;2023-04-25T00:54:28;34.30;33.19;38.58;;
69619;Laerm;57653;51.434;5.984;2023-04-25T00:54:40;34.65;33.01;40.05;;
69619;Laerm;57653;51.434;5.984;2023-04-25T00:54:50;35.00;33.08;47.41;;
69619;Laerm;57653;51.434;5.984;2023-04-25T00:55:00;34.64;33.02;42.15;;
69619;Laerm;57653;51.434;5.984;2023-04-25T00:55:11;34.61;33.10;41.21;;
69619;Laerm;57653;51.434;5.984;2023-04-25T00:55:22;34.71;33.00;40.07;;
69619;Laerm;57653;51.434;5.984;2023-04-25T00:55:32;34.22;33.13;35.26;;
69619;Laerm;57653;51.434;5.984;2023-04-25T00:55:44;34.59;33.22;38.61;;
69619;Laerm;57653;51.434;5.984;2023-04-25T00:55:55;34.43;32.74;38.66;;
69619;Laerm;57653;51.434;5.984;2023-04-25T00:56:05;34.38;33.10;37.06;;
69619;Laerm;57653;51.434;5.984;2023-04-25T00:56:16;34.58;33.33;39.29;;
69619;Laerm;57653;51.434;5.984;2023-04-25T00:56:26;34.49;33.29;35.62;;
69619;Laerm;57653;51.434;5.984;2023-04-25T00:56:36;34.36;33.18;36.41;;
69619;Laerm;57653;51.434;5.984;2023-04-25T00:56:47;34.34;32.99;44.00;;
69619;Laerm;57653;51.434;5.984;2023-04-25T00:56:57;34.21;33.13;35.07;;
69619;Laerm;57653;51.434;5.984;2023-04-25T00:57:07;34.14;33.08;34.98;;
69619;Laerm;57653;51.434;5.984;2023-04-25T00:57:19;34.34;33.22;36.92;;
69619;Laerm;57653;51.434;5.984;2023-04-25T00:57:29;34.37;33.39;35.43;;
69619;Laerm;57653;51.434;5.984;2023-04-25T00:57:39;34.34;33.32;35.76;;
69619;Laerm;57653;51.434;5.984;2023-04-25T00:57:50;34.89;33.57;36.70;;
69619;Laerm;57653;51.434;5.984;2023-04-25T00:58:00;59.56;35.80;66.11;;
69619;Laerm;57653;51.434;5.984;2023-04-25T00:58:11;63.40;60.90;66.25;;
69619;Laerm;57653;51.434;5.984;2023-04-25T00:58:21;62.03;53.41;65.73;;
69619;Laerm;57653;51.434;5.984;2023-04-25T00:58:32;49.93;42.06;57.17;;
69619;Laerm;57653;51.434;5.984;2023-04-25T00:58:42;42.28;38.80;45.94;;
69619;Laerm;57653;51.434;5.984;2023-04-25T00:58:53;39.32;36.25;42.37;;
69619;Laerm;57653;51.434;5.984;2023-04-25T00:59:04;37.21;35.29;39.40;;
69619;Laerm;57653;51.434;5.984;2023-04-25T00:59:14;36.32;33.99;39.53;;
69619;Laerm;57653;51.434;5.984;2023-04-25T00:59:25;34.70;33.54;35.66;;
69619;Laerm;57653;51.434;5.984;2023-04-25T00:59:35;34.79;33.84;35.82;;